EDDBLPMA

Guest
Details From EDDB - Berlin Schoenefeld
To LPMA - Madeira
Flight Number -
Tags Generated
Created
Modified
Stats Distance 1,765 nm / 3,269 km
Max Altitude 0 ft / 0 m
Waypoints 8
Social Downloads 1
Likes 0
Share VATSIM

Download

Looking for another format? Having issues loading an existing format? Contact us
Advertisement - Login to hide

Notes

Generated

Route

EDDB KUSOM LAULY CY404 NORAY VIS MAD LPMA

ID Type Via Altitude Latitude Longitude Leg Dist Tot Dist Heading (true) Name
O EDDB APT - 0 ft / 0 m 52.38012˚ 13.51714˚ - 0 nm - Berlin Schoenefeld
KUSOM FIX - 0 ft / 0 m 50.38167˚ 8.36556˚ 227 nm 227 nm 240° / 236° -
LAULY FIX - 0 ft / 0 m 48.15722˚ 3.70222˚ 226 nm 453 nm 236° / 232° -
CY404 FIX - 0 ft / 0 m 45.66444˚ -0.72953˚ 235 nm 689 nm 232° / 229° -
NORAY FIX - 0 ft / 0 m 43.50563˚ -4.10973˚ 194 nm 883 nm 229° / 227° -
VIS VOR - 0 ft / 0 m 40.72333˚ -7.88583˚ 237 nm 1120 nm 226° / 224° VISEU VOR-DME
MAD NDB - 0 ft / 0 m 32.74813˚ -16.70651˚ 639 nm 1759 nm 224° / 219° MADEIRA NDB
O LPMA APT - 0 ft / 0 m 32.68900˚ -16.78409˚ 5 nm 1764 nm 228° / 228° -

Altitude Profile

Advertisement - Login to hide

Weather


0- 5 10 15 20 25 30 35+ Temperature / ° C

Clouds and Precipitation
Forecast for 2018-05-21 18:00 UTC. Updated 23 minutes ago

Ground ~20,000 ft ~40,000 ft Winds

EDDB

Details ICAO EDDB (BER)
Name Berlin Schoenefeld
Region Germany - Civil
Timezone Europe/Berlin (UTC+2.0)
Stats Elevation 157 ft / 48 m (AMSL)
Location 52.378541° 13.520629°
Runways 2
Magnetic Variation 3.865° E

METAR

EDDB 211450Z 10012KT 060V140 CAVOK 23/03 Q1018 TEMPO 10015G25KT

Decode

TAF

TAF TAF EDDB 211100Z 2112/2212 07010KT CAVOK TEMPO 2112/2118 10015G25KT BECMG 2117/2120 07005KT

Decode

Departure Runways

ID Width Length Bearing (true) Bearing (mag) Surface Threshold Offset Overrun Length
07 148 ft / 45 m 9,817 ft / 2,992 m 68.75° 64.89° Asphalt 0 ft / 0 m 984 ft / 300 m
07L 148 ft / 45 m 8,867 ft / 2,703 m 68.77° 64.91° Concrete 0 ft / 0 m 525 ft / 160 m
25 148 ft / 45 m 9,817 ft / 2,992 m 248.78° 244.92° Asphalt 0 ft / 0 m 984 ft / 300 m
25R 148 ft / 45 m 8,867 ft / 2,703 m 248.80° 244.94° Concrete 0 ft / 0 m 984 ft / 300 m

LPMA

Details ICAO LPMA (FNC)
Name Madeira
Region Portugal
Timezone Atlantic/Madeira (UTC+1.0)
Stats Elevation 192 ft / 59 m (AMSL)
Location 32.697704° -16.774449°
Runways 1
Magnetic Variation 4.928° W

METAR

LPMA 211530Z 14007KT 070V210 9999 FEW018 21/13 Q1016

Decode

TAF

TAF LPMA 211100Z 2112/2212 20008KT 9999 SCT016 TEMPO 2112/2118 SCT015 BKN030 BECMG 2118/2120 VRB05KT BKN015 TEMPO 2120/2203 6000 -RADZ SCT008 BKN013 BECMG 2200/2202 35008KT BECMG 2210/2212 SCT015 BKN030

Decode

Destination Runways

ID Width Length Bearing (true) Bearing (mag) Surface Threshold Offset Overrun Length
05 141 ft / 43 m 8,683 ft / 2,647 m 42.98° 47.91° Asphalt 472 ft / 144 m 0 ft / 0 m
23 141 ft / 43 m 8,683 ft / 2,647 m 222.99° 227.92° Asphalt 466 ft / 142 m 0 ft / 0 m

Popular Alternatives